createdAt,value
2022-10-30T00:02:22.196Z,14.20
2022-10-30T00:06:23.631Z,14.12
2022-10-30T00:10:25.297Z,14.12
2022-10-30T00:14:26.742Z,14.06
2022-10-30T00:18:28.073Z,13.78
2022-10-30T00:22:29.510Z,13.94
2022-10-30T00:26:32.303Z,13.64
2022-10-30T00:30:34.871Z,13.68
2022-10-30T00:34:37.396Z,13.70
2022-10-30T00:38:38.746Z,13.60
2022-10-30T00:42:40.107Z,13.80
2022-10-30T00:46:42.402Z,13.64
2022-10-30T00:50:43.824Z,13.51
2022-10-30T00:54:45.258Z,13.27
2022-10-30T00:58:57.195Z,13.25
2022-10-30T01:02:59.277Z,13.18
2022-10-30T01:07:07.689Z,12.80
2022-10-30T01:11:10.259Z,12.65
2022-10-30T01:15:13.171Z,12.72
2022-10-30T01:19:36.251Z,12.58
2022-10-30T01:23:48.605Z,12.57
2022-10-30T01:28:11.652Z,12.73
2022-10-30T01:32:39.352Z,12.48
2022-10-30T01:36:48.684Z,12.68
2022-10-30T01:40:51.235Z,12.82
2022-10-30T01:44:52.664Z,12.68
2022-10-30T01:49:02.509Z,12.71
2022-10-30T01:53:34.608Z,12.65
2022-10-30T01:57:49.622Z,12.56
2022-10-30T02:01:51.181Z,12.47
2022-10-30T02:05:53.928Z,12.40
2022-10-30T02:09:55.772Z,12.71
2022-10-30T02:13:58.632Z,12.67
2022-10-30T02:18:01.010Z,12.82
2022-10-30T02:22:03.935Z,12.93
2022-10-30T02:26:05.590Z,12.95
2022-10-30T02:30:07.750Z,12.97
2022-10-30T02:34:09.147Z,12.91
2022-10-30T02:38:10.563Z,12.72
2022-10-30T02:42:11.958Z,12.64
2022-10-30T02:46:13.391Z,12.74
2022-10-30T02:50:14.971Z,12.50
2022-10-30T02:54:16.334Z,12.58
2022-10-30T02:58:17.738Z,12.35
2022-10-30T03:02:19.359Z,12.43
2022-10-30T03:06:20.928Z,12.28
2022-10-30T03:10:22.317Z,12.07
2022-10-30T03:14:23.741Z,12.17
2022-10-30T03:18:25.178Z,12.20
2022-10-30T03:22:26.651Z,12.29
2022-10-30T03:26:28.080Z,12.46
2022-10-30T03:30:29.491Z,12.22
2022-10-30T03:34:30.885Z,12.30
2022-10-30T03:38:32.753Z,12.33
2022-10-30T03:42:34.137Z,12.36
2022-10-30T03:46:35.873Z,12.14
2022-10-30T03:50:37.249Z,12.21
2022-10-30T03:54:38.710Z,12.30
2022-10-30T03:58:40.033Z,12.19
2022-10-30T04:02:49.007Z,12.20
2022-10-30T04:06:50.422Z,12.34
2022-10-30T04:10:51.831Z,12.26
2022-10-30T04:14:53.713Z,12.09
2022-10-30T04:18:55.068Z,12.34
2022-10-30T04:22:58.383Z,12.18
2022-10-30T04:26:59.738Z,12.37
2022-10-30T04:31:01.117Z,12.32
2022-10-30T04:35:03.707Z,12.24
2022-10-30T04:39:05.070Z,12.14
2022-10-30T04:43:07.212Z,12.04
2022-10-30T04:47:08.700Z,12.35
2022-10-30T04:51:11.666Z,12.48
2022-10-30T04:55:13.200Z,12.50
2022-10-30T04:59:14.541Z,12.34
2022-10-30T05:03:19.943Z,12.05
2022-10-30T05:07:21.301Z,12.21
2022-10-30T05:11:22.800Z,12.29
2022-10-30T05:15:24.165Z,12.22
2022-10-30T05:19:25.945Z,12.45
2022-10-30T05:23:27.311Z,12.51
2022-10-30T05:27:28.725Z,12.47
2022-10-30T05:31:30.135Z,12.05
2022-10-30T05:35:33.185Z,12.16
2022-10-30T05:39:34.752Z,11.97
2022-10-30T05:43:36.132Z,12.26
2022-10-30T05:47:37.479Z,12.20
2022-10-30T05:51:40.622Z,12.07
2022-10-30T05:55:42.149Z,12.40
2022-10-30T05:59:43.492Z,12.52
2022-10-30T06:03:45.296Z,12.51
2022-10-30T06:07:46.652Z,12.26
2022-10-30T06:11:48.034Z,12.37
2022-10-30T06:15:49.418Z,12.60
2022-10-30T06:19:50.788Z,12.54
2022-10-30T06:23:52.221Z,12.63
2022-10-30T06:27:53.758Z,12.74
2022-10-30T06:31:55.160Z,12.64
2022-10-30T06:35:56.550Z,12.54
2022-10-30T06:39:57.893Z,12.83
2022-10-30T06:43:59.460Z,12.61
2022-10-30T06:48:02.237Z,12.56
2022-10-30T06:52:04.034Z,12.53
2022-10-30T06:56:05.539Z,12.43
2022-10-30T07:00:07.995Z,12.51
2022-10-30T07:04:09.416Z,12.57
2022-10-30T07:08:10.873Z,12.57
2022-10-30T07:12:12.327Z,12.47
2022-10-30T07:16:13.673Z,12.48
2022-10-30T07:20:15.271Z,12.37
2022-10-30T07:24:16.992Z,12.56
2022-10-30T07:28:18.784Z,12.65
2022-10-30T07:32:20.406Z,12.81
2022-10-30T07:36:22.212Z,12.77
2022-10-30T07:40:23.597Z,13.07
2022-10-30T07:44:24.930Z,13.33
2022-10-30T07:48:26.320Z,13.38
2022-10-30T07:52:32.272Z,13.77
2022-10-30T07:56:33.912Z,13.91
2022-10-30T08:00:35.339Z,13.69
2022-10-30T08:04:36.691Z,13.68
2022-10-30T08:08:42.951Z,13.77
2022-10-30T08:12:45.784Z,13.63
2022-10-30T08:16:47.178Z,13.91
2022-10-30T08:20:50.510Z,14.44
2022-10-30T08:24:52.202Z,14.61
2022-10-30T08:28:53.550Z,14.64
2022-10-30T08:33:00.022Z,14.61
2022-10-30T08:37:01.790Z,14.85
2022-10-30T08:41:03.212Z,15.19
2022-10-30T08:45:05.888Z,15.57
2022-10-30T08:49:07.404Z,15.73
2022-10-30T08:53:11.864Z,15.35
2022-10-30T08:57:13.235Z,15.59
2022-10-30T09:01:14.747Z,15.73
2022-10-30T09:05:16.314Z,15.85
2022-10-30T09:09:17.718Z,16.33
2022-10-30T09:13:19.076Z,17.01
2022-10-30T09:17:20.481Z,17.47
2022-10-30T09:21:21.889Z,17.60
2022-10-30T09:25:25.975Z,18.25
2022-10-30T09:29:27.436Z,18.39
2022-10-30T09:33:29.009Z,19.02
2022-10-30T09:37:34.438Z,19.37
2022-10-30T09:42:04.264Z,19.68
2022-10-30T09:46:15.625Z,19.74
2022-10-30T09:50:25.884Z,19.77
2022-10-30T09:54:42.886Z,19.64
2022-10-30T09:59:13.391Z,18.67
2022-10-30T10:03:55.482Z,19.57
2022-10-30T10:08:03.958Z,19.64
2022-10-30T10:12:11.153Z,19.75
2022-10-30T10:16:20.770Z,20.15
2022-10-30T10:20:43.919Z,20.11
2022-10-30T10:24:47.547Z,20.34
2022-10-30T10:29:17.211Z,20.81
2022-10-30T10:33:35.121Z,20.84
2022-10-30T10:37:46.758Z,21.38
2022-10-30T10:42:17.404Z,22.17
2022-10-30T10:46:18.718Z,21.84
2022-10-30T10:50:32.543Z,22.65
2022-10-30T10:54:53.672Z,22.75
2022-10-30T10:59:03.509Z,22.91
2022-10-30T11:03:39.289Z,23.06
2022-10-30T11:07:49.064Z,22.01
2022-10-30T11:11:53.116Z,22.21
2022-10-30T11:16:23.891Z,22.43
2022-10-30T11:20:37.078Z,21.87
2022-10-30T11:24:38.472Z,22.98
2022-10-30T11:28:50.388Z,22.37
2022-10-30T11:32:53.331Z,21.96
2022-10-30T11:36:57.011Z,22.69
2022-10-30T11:41:01.521Z,22.64
2022-10-30T11:45:04.575Z,21.96
2022-10-30T11:49:06.060Z,22.07
2022-10-30T11:53:50.749Z,23.35
2022-10-30T11:57:55.635Z,22.94
2022-10-30T12:01:59.836Z,22.89
2022-10-30T12:06:19.319Z,24.17
2022-10-30T12:10:26.355Z,23.63
2022-10-30T12:14:27.781Z,24.03
2022-10-30T12:18:30.028Z,24.12
2022-10-30T12:22:36.279Z,23.10
2022-10-30T12:26:39.537Z,23.89
2022-10-30T12:30:54.610Z,24.09
2022-10-30T12:35:02.831Z,24.24
2022-10-30T12:39:26.464Z,24.12
2022-10-30T12:43:28.447Z,24.19
2022-10-30T12:47:41.128Z,23.72
2022-10-30T12:51:48.964Z,23.40
2022-10-30T12:55:58.238Z,23.34
2022-10-30T13:00:10.099Z,22.93
2022-10-30T13:04:45.977Z,23.14
2022-10-30T13:09:03.359Z,23.98
2022-10-30T13:13:13.310Z,24.14
2022-10-30T13:17:15.513Z,23.09
2022-10-30T13:21:24.960Z,23.73
2022-10-30T13:25:39.823Z,24.07
2022-10-30T13:29:52.484Z,24.49
2022-10-30T13:34:06.098Z,24.82
2022-10-30T13:38:29.330Z,24.20
2022-10-30T13:42:56.805Z,24.94
2022-10-30T13:47:16.214Z,24.18
2022-10-30T13:51:24.249Z,24.14
2022-10-30T13:55:27.499Z,24.54
2022-10-30T13:59:57.003Z,24.18
2022-10-30T14:03:58.405Z,24.89
2022-10-30T14:08:11.860Z,24.66
2022-10-30T14:13:04.613Z,24.40
2022-10-30T14:17:17.703Z,25.27
2022-10-30T14:21:34.443Z,25.18
2022-10-30T14:25:36.049Z,25.33
2022-10-30T14:29:43.584Z,25.35
2022-10-30T14:33:46.775Z,25.52
2022-10-30T14:37:57.745Z,25.06
2022-10-30T14:42:32.485Z,25.30
2022-10-30T14:46:48.932Z,25.39
2022-10-30T14:51:01.174Z,25.14
2022-10-30T14:55:15.498Z,24.79
2022-10-30T14:59:16.796Z,24.55
2022-10-30T15:03:32.697Z,23.98
2022-10-30T15:07:43.876Z,23.61
2022-10-30T15:11:57.275Z,23.38
2022-10-30T15:16:01.125Z,22.97
2022-10-30T15:20:07.361Z,22.54
2022-10-30T15:24:15.482Z,22.09
2022-10-30T15:28:20.538Z,21.67
2022-10-30T15:32:24.292Z,20.75
2022-10-30T15:36:40.306Z,20.71
2022-10-30T15:40:41.833Z,20.53
2022-10-30T15:44:45.745Z,20.07
2022-10-30T15:48:47.899Z,19.85
2022-10-30T15:52:49.874Z,19.40
2022-10-30T15:57:31.357Z,19.52
2022-10-30T16:01:30.496Z,19.29
2022-10-30T16:05:32.720Z,19.08
2022-10-30T16:09:34.147Z,18.86
2022-10-30T16:13:36.081Z,18.42
2022-10-30T16:17:37.698Z,18.43
2022-10-30T16:21:39.132Z,17.93
2022-10-30T16:25:46.824Z,18.09
2022-10-30T16:29:51.978Z,18.02
2022-10-30T16:33:53.561Z,17.81
2022-10-30T16:37:56.188Z,17.59
2022-10-30T16:42:01.299Z,17.41
2022-10-30T16:46:14.873Z,17.40
2022-10-30T16:50:17.329Z,17.17
2022-10-30T16:54:26.184Z,16.65
2022-10-30T16:58:31.929Z,16.88
2022-10-30T17:02:36.913Z,16.53
2022-10-30T17:06:44.589Z,16.29
2022-10-30T17:10:57.843Z,16.52
2022-10-30T17:15:06.535Z,16.48
2022-10-30T17:19:29.946Z,16.35
2022-10-30T17:23:31.571Z,16.29
2022-10-30T17:27:50.547Z,16.04
2022-10-30T17:31:58.598Z,16.07
2022-10-30T17:35:59.985Z,15.98
2022-10-30T17:40:01.382Z,15.99
2022-10-30T17:44:03.483Z,15.85
2022-10-30T17:48:12.509Z,15.80
2022-10-30T17:52:17.706Z,15.60
2022-10-30T17:56:28.179Z,15.53
2022-10-30T18:00:29.590Z,15.51
2022-10-30T18:04:31.101Z,15.38
2022-10-30T18:08:32.585Z,15.32
2022-10-30T18:12:34.108Z,15.24
2022-10-30T18:16:35.547Z,15.12
2022-10-30T18:20:37.135Z,15.01
2022-10-30T18:24:38.530Z,14.91
2022-10-30T18:28:40.042Z,14.80
2022-10-30T18:32:42.989Z,14.68
2022-10-30T18:36:44.515Z,14.64
2022-10-30T18:40:47.854Z,14.74
2022-10-30T18:44:49.256Z,14.71
2022-10-30T18:48:50.668Z,14.66
2022-10-30T18:52:52.305Z,14.47
2022-10-30T18:56:53.710Z,14.40
2022-10-30T19:01:12.294Z,14.34
2022-10-30T19:05:26.134Z,14.29
2022-10-30T19:09:27.555Z,14.21
2022-10-30T19:13:30.574Z,14.16
2022-10-30T19:17:31.987Z,13.93
2022-10-30T19:21:35.263Z,13.81
2022-10-30T19:25:36.702Z,13.88
2022-10-30T19:29:38.095Z,14.00
2022-10-30T19:33:40.788Z,13.98
2022-10-30T19:37:43.031Z,14.14
2022-10-30T19:41:44.505Z,14.22
2022-10-30T19:45:47.231Z,14.35
2022-10-30T19:49:50.328Z,14.39
2022-10-30T19:53:53.544Z,14.31
2022-10-30T19:57:57.188Z,14.29
2022-10-30T20:01:59.200Z,14.10
2022-10-30T20:06:00.823Z,14.16
2022-10-30T20:10:02.652Z,13.98
2022-10-30T20:14:04.061Z,13.89
2022-10-30T20:18:15.444Z,13.81
2022-10-30T20:22:16.999Z,13.60
2022-10-30T20:26:29.469Z,13.49
2022-10-30T20:30:30.964Z,13.41
2022-10-30T20:34:35.198Z,12.84
2022-10-30T20:38:36.697Z,13.02
2022-10-30T20:42:38.214Z,13.10
2022-10-30T20:46:39.751Z,13.03
2022-10-30T20:50:41.633Z,13.00
2022-10-30T20:54:43.072Z,12.97
2022-10-30T20:58:44.441Z,12.92
2022-10-30T21:02:46.168Z,12.96
2022-10-30T21:06:47.675Z,12.89
2022-10-30T21:10:49.479Z,12.87
2022-10-30T21:14:58.618Z,12.89
2022-10-30T21:19:00.116Z,12.77
2022-10-30T21:23:01.554Z,12.69
2022-10-30T21:27:03.033Z,12.63
2022-10-30T21:31:07.569Z,12.66
2022-10-30T21:35:09.275Z,12.51
2022-10-30T21:39:10.850Z,12.48
2022-10-30T21:43:12.455Z,12.41
2022-10-30T21:47:14.087Z,12.46
2022-10-30T21:51:18.921Z,12.74
2022-10-30T21:55:20.300Z,12.76
2022-10-30T21:59:21.895Z,12.83
2022-10-30T22:03:23.375Z,12.58
2022-10-30T22:07:24.974Z,12.34
2022-10-30T22:11:28.611Z,12.01
2022-10-30T22:15:29.976Z,11.96
2022-10-30T22:19:31.379Z,11.87
2022-10-30T22:23:33.881Z,11.84
2022-10-30T22:27:35.248Z,11.78
2022-10-30T22:31:36.648Z,11.60
2022-10-30T22:35:38.554Z,11.72
2022-10-30T22:39:40.017Z,11.79
2022-10-30T22:43:42.586Z,11.92
2022-10-30T22:47:43.984Z,11.89
2022-10-30T22:51:45.481Z,12.09
2022-10-30T22:55:46.848Z,12.03
2022-10-30T22:59:48.420Z,12.13
2022-10-30T23:03:50.282Z,12.47
2022-10-30T23:07:52.449Z,12.40
2022-10-30T23:11:53.821Z,12.25
2022-10-30T23:16:01.449Z,12.31
2022-10-30T23:20:05.526Z,12.26
2022-10-30T23:24:07.382Z,11.85
2022-10-30T23:28:10.801Z,11.90
2022-10-30T23:32:12.166Z,11.98
2022-10-30T23:36:13.556Z,11.92
2022-10-30T23:40:15.013Z,11.94
2022-10-30T23:44:16.809Z,11.59
2022-10-30T23:48:18.274Z,11.51
2022-10-30T23:52:19.659Z,11.67
2022-10-30T23:56:21.399Z,11.83
